Latest Weather Observations for Townsville

IDQ60801

Issued at 2:03 am EST Thursday 23 November 2017 (issued every 30 minutes, with the page automatically refreshed every 10 minutes)

About weather observations | Map of weather stations | Latest weather observations for QLD | Other Formats
Station Details ID: 032040 Name: TOWNSVILLE AERO Lat: -19.25 Lon: 146.77 Height: 4.34 m
Data from the previous 72 hours. | See also: Recent months at Townsville
Date/Time
EST
Temp
°C
App
Temp
°C
Dew
Point
°C
Rel
Hum
%
Delta-T
°C
Wind Press
QNH
hPa
Press
MSL
hPa
Rain since
9am
mm
Dir  Spd
km/h
Gust
km/h
Spd
kts
Gust
kts
23/02:00am 22.9 24.3 20.3 85 1.7 SE 13 26 7 14 1009.0 1008.9 19.6
23/01:30am 22.8 24.2 20.3 86 1.6 ESE 13 17 7 9 1009.2 1009.1 19.6
23/01:00am 22.8 23.9 20.5 87 1.5 SE 15 24 8 13 1009.4 1009.3 19.6
23/12:30am 22.4 23.3 20.9 91 1.0 ESE 17 22 9 12 1009.6 1009.5 19.2
23/12:04am 22.2 23.2 21.0 93 0.8 E 17 24 9 13 1010.1 1010.0 17.4
23/12:00am 22.2 22.8 21.0 93 0.8 E 19 24 10 13 1010.1 1010.0 17.0
 
Date/Time
EST
Temp
°C
App
Temp
°C
Dew
Point
°C
Rel
Hum
%
Delta-T
°C
Wind Press
QNH
hPa
Press
MSL
hPa
Rain since
9am
mm
Dir  Spd
km/h
Gust
km/h
Spd
kts
Gust
kts
22/11:30pm 21.2 18.6 19.5 90 1.1 ENE 32 37 17 20 1010.5 1010.4 13.8
22/11:00pm 21.7 20.9 20.1 91 1.0 NE 24 32 13 17 1010.7 1010.6 4.8
22/10:53pm 22.1 21.2 20.7 92 0.9 ENE 26 35 14 19 1010.6 1010.5 4.6
22/10:43pm 22.7 21.3 20.5 87 1.4 ENE 28 37 15 20 1010.5 1010.4 4.0
22/10:30pm 23.7 25.3 20.8 84 1.9 ESE 13 17 7 9 1010.4 1010.3 4.0
22/10:13pm 23.2 24.9 20.9 87 1.5 E 13 19 7 10 1010.3 1010.2 4.0
22/10:00pm 22.6 22.1 20.8 89 1.2 ENE 24 43 13 23 1010.3 1010.2 3.6
22/09:52pm 22.4 21.4 19.7 85 1.7 ENE 24 43 13 23 1010.5 1010.4 1.8
22/09:30pm 25.4 24.8 19.7 70 3.7 ESE 22 32 12 17 1010.1 1010.0 0.0
22/09:00pm 25.3 25.6 19.6 70 3.7 ESE 17 22 9 12 1010.1 1010.0 0.0
22/08:30pm 25.4 25.1 19.2 68 4.0 E 19 26 10 14 1010.1 1010.0 0.0
22/08:00pm 25.6 24.7 19.0 67 4.2 ESE 22 32 12 17 1009.9 1009.8 0.0
22/07:30pm 25.7 25.2 18.6 65 4.5 E 19 26 10 14 1009.8 1009.7 0.0
22/07:00pm 25.7 24.7 18.8 65 4.4 E 22 30 12 16 1009.4 1009.3 0.0
22/06:30pm 25.7 25.2 19.0 66 4.3 E 20 28 11 15 1009.2 1009.1 0.0
22/06:00pm 26.0 24.1 18.5 63 4.8 E 26 33 14 18 1008.9 1008.8 0.0
22/05:30pm 26.3 23.8 18.1 60 5.2 E 28 37 15 20 1008.5 1008.4 0.0
22/05:00pm 26.8 24.6 18.7 61 5.2 E 28 35 15 19 1008.2 1008.1 0.0
22/04:30pm 27.3 25.1 18.6 59 5.6 E 28 35 15 19 1008.1 1008.0 0.0
22/04:00pm 27.4 24.6 18.3 57 5.8 ENE 30 37 16 20 1008.0 1007.9 0.0
22/03:30pm 28.3 25.5 18.3 54 6.4 ENE 30 39 16 21 1008.2 1008.1 0.0
22/03:00pm 27.5 25.3 18.6 58 5.7 ENE 28 35 15 19 1008.4 1008.3 0.0
22/02:30pm 28.0 25.5 18.8 57 5.9 ENE 30 37 16 20 1008.5 1008.4 0.0
22/02:00pm 28.5 25.5 18.7 55 6.3 ENE 32 39 17 21 1008.7 1008.6 0.0
22/01:30pm 28.4 25.3 18.8 56 6.2 ENE 33 39 18 21 1009.0 1008.9 0.0
22/01:00pm 29.3 27.0 19.3 55 6.5 ENE 30 37 16 20 1009.4 1009.3 0.0
22/12:30pm 29.0 26.2 19.0 54 6.5 ENE 32 39 17 21 1009.8 1009.7 0.0
22/12:00pm 29.6 26.1 17.5 48 7.7 ENE 32 39 17 21 1009.8 1009.7 0.0
22/11:30am 29.0 25.4 17.3 49 7.4 ENE 32 37 17 20 1010.3 1010.2 0.0
22/11:00am 28.8 27.0 17.8 51 7.0 E 24 39 13 21 1010.4 1010.3 0.0
22/10:30am 29.4 27.6 17.8 49 7.4 ESE 24 35 13 19 1010.5 1010.4 0.0
22/10:00am 28.2 26.7 17.8 53 6.6 ESE 22 32 12 17 1011.0 1010.9 0.0
22/09:30am 27.0 24.4 17.8 57 5.8 ESE 28 39 15 21 1011.0 1010.9 0.0
22/09:00am 26.9 25.3 18.4 59 5.4 ESE 24 33 13 18 1011.1 1011.0 0.2
22/08:30am 26.4 24.4 18.2 60 5.2 ESE 26 33 14 18 1010.9 1010.8 0.2
22/08:00am 26.6 24.9 17.3 56 5.8 ESE 22 30 12 16 1010.8 1010.7 0.2
22/07:30am 25.5 24.5 17.5 61 5.0 ESE 19 30 10 16 1010.7 1010.6 0.2
22/07:00am 24.8 25.1 18.0 66 4.3 SE 13 17 7 9 1010.8 1010.7 0.0
22/06:30am 24.3 25.2 18.3 69 3.8 SE 11 13 6 7 1010.6 1010.5 0.0
22/06:00am 23.5 23.5 18.1 71 3.4 SE 15 19 8 10 1010.0 1009.9 0.0
22/05:30am 23.3 23.2 17.9 71 3.4 SE 15 17 8 9 1009.6 1009.5 0.0
22/05:00am 23.3 22.9 18.0 72 3.3 SE 17 20 9 11 1009.7 1009.6 0.0
22/04:30am 23.2 22.6 18.4 74 3.0 SE 19 28 10 15 1009.5 1009.4 0.0
22/04:00am 23.3 21.3 18.2 73 3.2 ESE 26 37 14 20 1009.1 1009.0 0.0
22/03:30am 23.6 23.6 18.0 71 3.5 SE 15 20 8 11 1009.0 1008.9 0.0
22/03:00am 23.7 23.7 18.1 71 3.5 SE 15 19 8 10 1009.1 1009.0 0.0
22/02:30am 23.8 23.8 18.1 70 3.6 SE 15 19 8 10 1009.3 1009.2 0.0
22/02:00am 23.8 23.8 18.2 71 3.5 SE 15 19 8 10 1009.4 1009.3 0.0
22/01:30am 23.9 23.9 18.2 70 3.6 SE 15 19 8 10 1009.7 1009.6 0.0
22/01:00am 24.0 23.7 18.3 70 3.6 SE 17 20 9 11 1009.7 1009.6 0.0
22/12:30am 24.1 24.3 18.6 71 3.5 SE 15 22 8 12 1010.2 1010.1 0.0
22/12:00am 24.3 23.8 19.0 72 3.4 SE 20 28 11 15 1010.5 1010.4 0.0
 
Date/Time
EST
Temp
°C
App
Temp
°C
Dew
Point
°C
Rel
Hum
%
Delta-T
°C
Wind Press
QNH
hPa
Press
MSL
hPa
Rain since
9am
mm
Dir  Spd
km/h
Gust
km/h
Spd
kts
Gust
kts
21/11:30pm 24.4 24.5 19.1 72 3.4 ESE 17 26 9 14 1010.6 1010.5 0.0
21/11:00pm 24.3 24.7 19.0 72 3.4 ESE 15 22 8 12 1010.8 1010.7 0.0
21/10:30pm 24.2 24.6 18.9 72 3.4 ESE 15 20 8 11 1011.3 1011.2 0.0
21/10:00pm 24.1 25.4 19.3 74 3.1 ESE 11 15 6 8 1011.5 1011.4 0.0
21/09:30pm 24.5 24.4 18.8 70 3.6 ESE 17 22 9 12 1011.7 1011.6 0.0
21/09:00pm 24.8 24.5 18.3 67 4.1 ESE 17 22 9 12 1012.1 1012.0 0.0
21/08:30pm 24.9 24.9 18.1 66 4.3 ESE 15 19 8 10 1012.0 1011.9 0.0
21/08:00pm 25.0 24.8 18.4 66 4.2 SE 17 24 9 13 1011.7 1011.6 0.0
21/07:30pm 25.3 24.0 18.2 64 4.5 ESE 22 35 12 19 1011.4 1011.3 0.0
21/07:00pm 24.9 24.1 18.1 66 4.3 ESE 19 30 10 16 1011.2 1011.1 0.0
21/06:30pm 24.5 22.9 19.2 72 3.4 ENE 26 37 14 20 1010.9 1010.8 0.0
21/06:00pm 25.8 23.5 17.7 61 5.1 E 26 35 14 19 1010.7 1010.6 0.0
21/05:30pm 25.9 22.9 16.7 57 5.7 E 28 33 15 18 1010.4 1010.3 0.0
21/05:00pm 26.0 23.3 17.6 60 5.3 E 28 39 15 21 1010.3 1010.2 0.0
21/04:30pm 26.0 23.3 17.6 60 5.3 E 28 35 15 19 1010.2 1010.1 0.0
21/04:00pm 26.0 23.2 17.2 58 5.5 E 28 35 15 19 1010.1 1010.0 0.0
21/03:30pm 25.4 23.7 18.1 64 4.6 E 24 33 13 18 1010.6 1010.5 0.0
21/03:00pm 25.3 22.4 18.0 64 4.6 ENE 30 35 16 19 1010.6 1010.5 0.0
21/02:30pm 26.2 23.3 18.0 60 5.2 ENE 30 37 16 20 1010.9 1010.8 0.0
21/02:00pm 24.5 23.3 20.0 76 2.9 ENE 26 37 14 20 1011.7 1011.6 0.0
21/01:30pm 23.5 21.9 20.7 84 1.8 ENE 30 43 16 23 1012.1 1012.0 0.0
21/01:16pm 25.7 22.1 18.5 64 4.6 NE 35 48 19 26 1012.2 1012.1 0.0
21/01:00pm 25.8 23.7 20.5 72 3.5 ENE 32 39 17 21 1012.1 1012.0 0.0
21/12:44pm 25.9 21.8 18.3 63 4.8 ENE 37 48 20 26 1012.3 1012.2 0.0
21/12:30pm 27.1 25.6 18.5 59 5.5 E 24 33 13 18 1012.2 1012.1 0.0
21/12:00pm 26.9 25.7 18.4 59 5.4 ESE 22 32 12 17 1012.3 1012.2 0.0
21/11:30am 26.4 26.6 19.3 65 4.6 SE 17 24 9 13 1012.6 1012.5 0.0
21/11:00am 25.9 25.5 19.0 65 4.4 SE 19 30 10 16 1012.6 1012.5 0.0
21/10:30am 25.5 25.7 19.3 68 4.0 SE 17 28 9 15 1013.1 1013.0 0.0
21/10:00am 24.6 24.5 19.6 73 3.2 SE 19 26 10 14 1013.1 1013.0 0.0
21/09:30am 24.6 23.9 19.6 73 3.2 SE 22 30 12 16 1013.4 1013.3 0.0
21/09:00am 24.3 22.2 19.8 76 2.9 ESE 30 37 16 20 1013.1 1013.0 0.0
21/08:30am 24.8 22.1 19.2 71 3.6 ESE 32 41 17 22 1013.0 1012.9 0.0
21/08:00am 26.7 24.8 19.3 64 4.8 SE 28 35 15 19 1012.5 1012.4 0.0
21/07:30am 25.2 24.6 18.8 67 4.1 SE 20 28 11 15 1012.6 1012.5 0.0
21/07:00am 24.9 24.3 18.8 69 3.9 ESE 20 28 11 15 1012.3 1012.2 0.0
21/06:30am 24.5 24.2 19.2 72 3.4 SE 19 28 10 15 1011.8 1011.7 0.0
21/06:00am 24.1 23.7 19.3 74 3.1 SE 20 28 11 15 1011.5 1011.4 0.0
21/05:30am 23.8 23.2 18.9 74 3.1 ESE 20 28 11 15 1011.0 1010.9 0.0
21/05:00am 23.3 22.3 18.9 76 2.8 SE 22 32 12 17 1011.2 1011.1 0.0
21/04:30am 23.8 23.6 19.3 76 2.9 SE 19 26 10 14 1011.0 1010.9 0.0
21/04:00am 24.0 24.6 19.5 76 2.9 ESE 15 20 8 11 1010.9 1010.8 0.0
21/03:30am 24.0 23.3 19.6 76 2.8 SE 22 30 12 16 1010.8 1010.7 0.0
21/03:00am 24.1 24.0 19.6 76 2.9 SE 19 28 10 15 1010.7 1010.6 0.0
21/02:30am 24.3 24.0 19.6 75 3.0 ESE 20 30 11 16 1010.9 1010.8 0.0
21/02:00am 23.9 24.0 19.9 78 2.6 SE 19 24 10 13 1011.2 1011.1 0.0
21/01:30am 23.8 23.5 20.3 81 2.3 SE 22 28 12 15 1011.4 1011.3 0.0
21/01:00am 23.3 22.8 20.7 85 1.7 SE 24 30 13 16 1011.7 1011.6 0.0
21/12:30am 24.2 22.8 20.4 79 2.5 ESE 28 33 15 18 1012.0 1011.9 0.0
21/12:00am 24.5 23.1 20.4 78 2.7 ESE 28 33 15 18 1012.6 1012.5 0.0
 
Date/Time
EST
Temp
°C
App
Temp
°C
Dew
Point
°C
Rel
Hum
%
Delta-T
°C
Wind Press
QNH
hPa
Press
MSL
hPa
Rain since
9am
mm
Dir  Spd
km/h
Gust
km/h
Spd
kts
Gust
kts
20/11:30pm 25.2 24.2 20.5 75 3.1 ESE 26 37 14 20 1012.9 1012.8 0.0
20/11:00pm 25.7 23.9 19.5 68 4.0 ESE 28 35 15 19 1013.1 1013.0 0.0
20/10:30pm 24.9 22.4 18.9 69 3.8 E 30 37 16 20 1013.1 1013.0 0.0
20/10:00pm 25.2 24.0 19.3 70 3.8 E 24 35 13 19 1013.3 1013.2 0.0
20/09:30pm 25.9 24.6 19.9 69 3.9 E 26 33 14 18 1013.4 1013.3 0.0
20/09:00pm 25.9 24.7 19.2 66 4.3 E 24 35 13 19 1013.2 1013.1 0.0
20/08:30pm 26.0 24.4 20.0 69 3.9 ENE 28 33 15 18 1012.9 1012.8 0.0
20/08:00pm 26.3 24.5 18.8 63 4.8 E 26 33 14 18 1012.4 1012.3 0.0
20/07:30pm 26.2 24.4 19.5 66 4.3 ENE 28 35 15 19 1012.0 1011.9 0.0
20/07:00pm 26.1 24.4 19.9 68 4.0 E 28 35 15 19 1011.5 1011.4 0.0
20/06:30pm 26.1 25.0 20.3 70 3.8 ENE 26 35 14 19 1011.1 1011.0 0.0
20/06:00pm 26.3 24.9 20.5 70 3.8 ENE 28 35 15 19 1010.8 1010.7 0.0
20/05:30pm 26.9 24.9 20.7 69 4.1 ENE 32 41 17 22 1010.6 1010.5 0.0
20/05:00pm 27.7 26.3 20.4 64 4.8 ENE 28 33 15 18 1010.7 1010.6 0.0
20/04:30pm 27.4 25.8 20.1 64 4.8 ENE 28 35 15 19 1010.7 1010.6 0.0
20/04:00pm 27.7 25.9 20.4 64 4.8 ENE 30 37 16 20 1010.6 1010.5 0.0
20/03:30pm 27.5 25.5 20.7 66 4.5 ENE 32 37 17 20 1010.9 1010.8 0.0
20/03:00pm 28.9 27.1 20.4 60 5.6 ENE 30 37 16 20 1011.0 1010.9 0.0
20/02:30pm 29.5 27.8 20.6 58 5.9 ENE 30 35 16 19 1011.4 1011.3 0.0
20/02:00pm 29.0 27.0 20.0 58 5.9 ENE 30 33 16 18 1011.6 1011.5 0.0
20/01:30pm 29.9 28.3 20.0 55 6.5 ENE 28 35 15 19 1011.8 1011.7 0.0
20/01:00pm 29.8 28.4 20.4 57 6.2 ENE 28 37 15 20 1012.2 1012.1 0.0
20/12:30pm 29.1 27.4 19.9 57 6.0 ENE 28 35 15 19 1012.8 1012.7 0.0
20/12:00pm 29.4 28.5 20.6 59 5.8 ENE 26 33 14 18 1012.9 1012.8 0.0
20/11:30am 29.3 27.7 20.0 57 6.1 NE 28 37 15 20 1013.1 1013.0 0.0
20/11:00am 28.9 27.6 19.9 58 5.9 ENE 26 32 14 17 1013.3 1013.2 0.0
20/10:30am 28.6 28.1 20.7 62 5.2 ENE 24 33 13 18 1013.3 1013.2 0.0
20/10:00am 28.6 28.7 20.4 61 5.4 ENE 20 32 11 17 1013.6 1013.5 0.0
20/09:30am 28.3 28.6 20.7 63 5.0 ENE 20 28 11 15 1013.7 1013.6 0.0
20/09:00am 29.2 28.4 20.1 58 6.0 ENE 24 35 13 19 1013.5 1013.4 0.2
20/08:30am 28.1 28.2 20.3 62 5.1 ENE 20 28 11 15 1013.5 1013.4 0.2
20/08:00am 27.5 27.4 20.8 67 4.4 ENE 22 30 12 16 1013.6 1013.5 0.2
20/07:30am 26.3 28.3 20.8 71 3.6 E 11 15 6 8 1013.5 1013.4 0.2
20/07:00am 26.8 26.9 19.9 66 4.5 E 19 26 10 14 1013.4 1013.3 0.2
20/06:30am 25.9 26.3 19.9 69 3.9 ENE 17 22 9 12 1013.2 1013.1 0.2
20/06:00am 25.5 25.1 20.1 72 3.5 ENE 22 28 12 15 1012.6 1012.5 0.2
20/05:30am 25.3 24.6 19.4 70 3.8 E 22 28 12 15 1012.2 1012.1 0.2
20/05:00am 25.4 25.2 19.7 70 3.7 ENE 20 26 11 14 1011.8 1011.7 0.2
20/04:30am 25.2 24.6 19.8 72 3.5 E 22 32 12 17 1011.5 1011.4 0.2
20/04:00am 25.1 25.4 19.5 71 3.6 E 17 24 9 13 1011.2 1011.1 0.2
20/03:30am 25.0 25.1 19.9 73 3.3 E 19 26 10 14 1011.3 1011.2 0.2
20/03:00am 25.0 25.1 19.9 73 3.3 E 19 32 10 17 1011.4 1011.3 0.2
20/02:30am 24.3 26.0 20.9 81 2.2 E 13 19 7 10 1011.4 1011.3 0.2

Other Formats:

Comma delimited format used in spreadsheet applications
http://www.bom.gov.au/fwo/IDQ60801/IDQ60801.94294.axf

JavaScript Object Notation format (JSON) in row-major order
http://www.bom.gov.au/fwo/IDQ60801/IDQ60801.94294.json